Time;durP1;ratioP1;P1;durP2;ratioP2;P2;SDS_P1;SDS_P2;PMS_P1;PMS_P2;Temp;Humidity;BMP_temperature;BMP_pressure;BME280_temperature;BME280_humidity;BME280_pressure;Samples;Min_cycle;Max_cycle;Signal;HPM_P1;HPM_P2
2022/08/17 00:02:56;;;;;;;5.97;5.43;;;;;;;23.15;51.97;98131.56;7033671;28;20212;-79
2022/08/17 00:06:21;;;;;;;5.80;5.20;;;;;;;23.24;51.43;98127.06;7033848;28;20630;-79
2022/08/17 00:09:43;;;;;;;5.43;4.90;;;;;;;23.33;50.81;98122.47;7032825;28;20267;-79
2022/08/17 00:13:06;;;;;;;6.40;5.83;;;;;;;23.21;51.50;98127.66;7033716;28;20305;-80
2022/08/17 00:16:30;;;;;;;5.23;4.83;;;;;;;22.94;50.18;98045.06;7034265;28;20202;-79
2022/08/17 00:19:52;;;;;;;6.67;5.33;;;;;;;23.19;50.95;98127.16;7033845;28;20586;-79
2022/08/17 00:23:17;;;;;;;5.87;5.37;;;;;;;23.38;50.23;98123.22;7032109;28;20316;-79
2022/08/17 00:26:38;;;;;;;6.90;5.60;;;;;;;22.55;52.64;98122.38;7033544;28;20232;-80
2022/08/17 00:30:00;;;;;;;7.27;5.73;;;;;;;22.60;52.78;98111.31;7032584;28;20239;-80
2022/08/17 00:33:24;;;;;;;6.80;5.87;;;;;;;22.79;52.40;98116.81;7032367;28;20314;-79
2022/08/17 00:36:45;;;;;;;7.20;5.77;;;;;;;22.62;52.27;98119.28;7033015;28;20213;-79
2022/08/17 00:40:11;;;;;;;7.00;5.33;;;;;;;22.63;52.76;98107.16;7031317;28;20264;-79
2022/08/17 00:43:35;;;;;;;6.20;5.60;;;;;;;22.72;52.62;98103.44;7033277;28;20255;-80
2022/08/17 00:46:56;;;;;;;6.67;5.37;;;;;;;22.80;52.13;98100.03;7015063;28;20321;-79
2022/08/17 00:50:19;;;;;;;6.47;5.87;;;;;;;22.69;52.54;98100.47;7002502;28;20207;-80
2022/08/17 00:53:43;;;;;;;7.60;5.87;;;;;;;22.20;53.08;98100.91;7004127;28;20257;-79
2022/08/17 00:57:09;;;;;;;6.20;5.60;;;;;;;21.94;54.40;98074.94;7003119;28;20253;-79
2022/08/17 01:00:33;;;;;;;6.37;5.50;;;;;;;22.21;53.73;98077.03;7003943;28;20264;-79
2022/08/17 01:03:55;;;;;;;6.07;5.57;;;;;;;22.24;53.41;98090.19;7004286;28;20227;-79
2022/08/17 01:07:17;;;;;;;7.73;5.60;;;;;;;22.65;52.58;98108.50;7004591;28;20352;-79
2022/08/17 01:10:41;;;;;;;6.60;5.63;;;;;;;22.51;52.85;98110.38;7003988;28;20228;-79
2022/08/17 01:14:04;;;;;;;6.93;6.33;;;;;;;22.16;52.76;98053.22;7003479;28;20307;-79
2022/08/17 01:17:27;;;;;;;6.53;5.80;;;;;;;21.79;54.27;98101.78;7003195;28;20232;-79
2022/08/17 01:20:50;;;;;;;6.20;5.60;;;;;;;22.09;53.52;98080.22;7003496;28;20219;-79
2022/08/17 01:24:14;;;;;;;6.17;5.57;;;;;;;22.21;52.93;98082.50;7003673;28;20712;-79
2022/08/17 01:27:36;;;;;;;6.53;5.83;;;;;;;22.44;52.65;98096.22;7013126;28;20346;-80
2022/08/17 01:30:59;;;;;;;6.37;5.77;;;;;;;22.22;52.75;98092.38;7025468;28;20225;-79
2022/08/17 01:34:21;;;;;;;6.90;6.00;;;;;;;21.73;55.29;98083.72;7030806;28;20235;-79
2022/08/17 01:37:43;;;;;;;6.43;5.93;;;;;;;22.04;54.09;98084.97;7029713;28;20254;-79
2022/08/17 01:41:10;;;;;;;6.27;5.77;;;;;;;22.05;53.70;98084.66;7030495;28;20684;-79
2022/08/17 01:44:31;;;;;;;5.77;5.27;;;;;;;21.93;53.74;98076.06;7030606;28;20234;-79
2022/08/17 01:47:54;;;;;;;6.47;5.87;;;;;;;22.02;53.93;98107.22;7030073;28;20201;-79
2022/08/17 01:51:16;;;;;;;5.93;5.30;;;;;;;21.63;53.66;98029.78;7030844;28;20207;-80
2022/08/17 01:54:40;;;;;;;6.17;5.67;;;;;;;21.77;54.54;98109.50;7029878;28;20247;-79
2022/08/17 01:58:08;;;;;;;6.20;5.60;;;;;;;21.92;54.15;98112.03;7029123;28;20226;-81
2022/08/17 02:01:31;;;;;;;7.07;6.10;;;;;;;22.05;53.79;98119.53;7031280;28;20193;-80
2022/08/17 02:04:53;;;;;;;7.03;6.17;;;;;;;21.29;55.85;98124.25;7003997;28;20266;-80
2022/08/17 02:08:15;;;;;;;6.23;5.63;;;;;;;21.43;55.96;98106.81;7003172;28;20202;-80
2022/08/17 02:11:38;;;;;;;7.77;6.17;;;;;;;21.43;55.75;98106.00;7003140;28;20210;-80
2022/08/17 02:15:01;;;;;;;6.27;5.77;;;;;;;21.63;54.22;98062.69;7002554;28;20231;-80
2022/08/17 02:18:22;;;;;;;6.63;6.03;;;;;;;21.97;53.39;98107.31;7001947;28;20783;-80
2022/08/17 02:21:46;;;;;;;6.40;5.70;;;;;;;21.68;54.17;98108.50;7002543;28;20247;-79
2022/08/17 02:25:09;;;;;;;7.63;5.90;;;;;;;21.59;54.35;98082.78;7002990;28;20222;-80
2022/08/17 02:28:31;;;;;;;6.87;6.10;;;;;;;21.45;55.28;98117.50;7007835;28;20241;-80
2022/08/17 02:31:54;;;;;;;6.40;5.80;;;;;;;21.84;54.02;98113.50;7059609;28;20242;-81
2022/08/17 02:35:15;;;;;;;6.87;6.27;;;;;;;21.81;54.26;98107.78;7060143;28;20365;-79
2022/08/17 02:38:37;;;;;;;6.27;5.77;;;;;;;21.98;53.38;98117.16;7059285;28;20244;-79
2022/08/17 02:42:03;;;;;;;7.90;6.20;;;;;;;21.57;55.18;98120.66;7060172;28;20278;-79
2022/08/17 02:45:26;;;;;;;6.13;5.53;;;;;;;21.80;54.04;98123.44;7060691;28;20224;-80
2022/08/17 02:48:48;;;;;;;6.13;5.63;;;;;;;21.76;53.89;98116.06;7059815;28;20643;-79
2022/08/17 02:52:10;;;;;;;6.40;5.80;;;;;;;21.77;54.04;98118.53;7060644;28;20268;-80
2022/08/17 02:55:33;;;;;;;7.13;5.70;;;;;;;21.84;53.85;98124.47;7060415;28;20329;-79
2022/08/17 02:58:54;;;;;;;6.43;5.93;;;;;;;21.65;54.31;98134.56;7059639;28;20375;-80
2022/08/17 03:02:16;;;;;;;7.40;6.57;;;;;;;21.16;55.58;98129.63;7060609;28;20295;-80
2022/08/17 03:05:39;;;;;;;7.63;6.33;;;;;;;20.71;57.16;98121.75;7066420;28;20589;-79
2022/08/17 03:09:01;;;;;;;6.50;6.00;;;;;;;21.08;56.86;98131.84;7064955;28;20285;-79
2022/08/17 03:12:22;;;;;;;6.60;5.90;;;;;;;21.31;55.84;98130.28;7066385;28;20735;-79
2022/08/17 03:15:45;;;;;;;7.27;6.17;;;;;;;21.62;54.67;98142.56;7065857;28;20711;-79
2022/08/17 03:19:06;;;;;;;6.20;5.67;;;;;;;21.37;54.22;98090.72;7066077;27;20289;-79
2022/08/17 03:22:29;;;;;;;6.67;6.00;;;;;;;21.63;54.10;98124.97;7068677;28;20283;-80
2022/08/17 03:25:52;;;;;;;6.07;5.43;;;;;;;21.84;52.88;98129.94;7079956;28;20532;-79
2022/08/17 03:29:17;;;;;;;7.77;6.67;;;;;;;21.44;53.82;98124.94;7019676;28;20293;-80
2022/08/17 03:32:40;;;;;;;7.17;6.30;;;;;;;21.29;54.78;98107.81;7006603;28;20190;-80
2022/08/17 03:36:02;;;;;;;5.87;5.37;;;;;;;21.45;54.24;98120.25;7031197;28;20226;-80
2022/08/17 03:39:25;;;;;;;6.37;5.73;;;;;;;21.24;54.81;98118.84;7034263;28;20254;-79
2022/08/17 03:42:46;;;;;;;6.67;6.07;;;;;;;20.91;56.64;98122.44;7035299;28;20235;-80
2022/08/17 03:57:15;;;;;;;6.43;5.73;;;;;;;21.55;54.71;98120.16;7009973;28;20205;-79
2022/08/17 04:00:36;;;;;;;6.83;6.10;;;;;;;21.22;55.53;98122.97;7036102;28;20303;-80
2022/08/17 04:03:58;;;;;;;6.47;5.87;;;;;;;21.54;54.57;98138.50;7035958;28;20293;-79
2022/08/17 04:07:21;;;;;;;6.73;6.17;;;;;;;20.88;55.71;98144.09;7038787;28;20287;-80
2022/08/17 04:10:42;;;;;;;7.50;6.37;;;;;;;20.55;57.52;98145.72;7037828;28;20213;-79
2022/08/17 04:14:06;;;;;;;7.03;6.17;;;;;;;20.73;57.00;98147.78;7038196;28;20254;-80
2022/08/17 04:17:29;;;;;;;7.40;6.70;;;;;;;;;;7035711;28;20666;-82
2022/08/17 04:20:50;;;;;;;7.03;6.43;;;;;;;20.81;57.33;98180.03;7033872;28;20238;-80
2022/08/17 04:24:12;;;;;;;7.23;6.53;;;;;;;20.87;57.12;98184.38;7029922;28;20256;-80
2022/08/17 04:27:33;;;;;;;7.03;6.40;;;;;;;21.08;56.35;98193.28;7012374;28;20308;-80
2022/08/17 04:30:57;;;;;;;8.30;6.40;;;;;;;20.98;56.31;98185.97;7005616;28;20201;-79
2022/08/17 04:34:19;;;;;;;7.30;6.60;;;;;;;21.20;55.78;98194.56;7019122;28;20225;-80
2022/08/17 04:37:40;;;;;;;6.43;5.93;;;;;;;21.46;54.45;98191.28;7032248;28;20323;-80
2022/08/17 04:44:41;;;;;;;10.23;6.83;;;;;;;20.71;56.11;98196.56;7031837;28;20274;-79
2022/08/17 04:48:04;;;;;;;8.90;7.33;;;;;;;20.06;59.15;98204.28;7032484;28;20193;-79
2022/08/17 04:51:28;;;;;;;7.93;7.23;;;;;;;20.16;59.57;98205.06;7032381;28;20204;-79
2022/08/17 04:54:50;;;;;;;8.43;7.03;;;;;;;20.48;57.93;98193.69;7031824;28;20315;-79
2022/08/17 04:58:11;;;;;;;6.57;5.97;;;;;;;20.78;56.93;98211.56;7031482;28;20247;-79
2022/08/17 05:01:35;;;;;;;7.80;7.10;;;;;;;20.33;58.00;98216.50;7033199;28;20300;-81
2022/08/17 05:04:58;;;;;;;7.77;7.00;;;;;;;19.73;60.11;98221.34;7034236;28;20221;-80
2022/08/17 05:08:21;;;;;;;8.07;7.37;;;;;;;19.88;60.10;98218.56;7031696;28;20241;-79
2022/08/17 05:11:42;;;;;;;7.40;6.80;;;;;;;20.35;59.00;98213.47;7033002;28;20289;-79
2022/08/17 05:15:04;;;;;;;8.13;6.77;;;;;;;21.02;57.28;98206.22;7031629;28;20698;-80
2022/08/17 05:18:27;;;;;;;7.00;6.33;;;;;;;21.28;55.74;98210.38;7029003;28;20255;-80
2022/08/17 05:21:50;;;;;;;6.73;6.00;;;;;;;21.49;55.13;98200.84;7031499;28;20228;-80
2022/08/17 05:25:13;;;;;;;8.13;6.73;;;;;;;21.69;54.72;98203.41;7030669;28;20312;-80
2022/08/17 05:28:34;;;;;;;7.73;5.93;;;;;;;21.70;54.26;98178.44;7030667;28;20288;-79
2022/08/17 05:31:56;;;;;;;7.17;6.53;;;;;;;20.83;56.06;98146.88;7021199;28;20213;-80
2022/08/17 05:35:17;;;;;;;7.17;6.30;;;;;;;21.84;55.58;98206.81;7031857;28;20228;-79
2022/08/17 05:38:41;;;;;;;6.07;5.43;;;;;;;22.66;53.28;98200.03;7024173;28;20265;-80
2022/08/17 05:42:02;;;;;;;8.37;5.93;;;;;;;23.08;51.18;98189.72;7002648;28;20202;-79
2022/08/17 05:45:24;;;;;;;5.93;5.43;;;;;;;23.62;50.22;98206.41;7002191;28;20308;-80
2022/08/17 05:48:47;;;;;;;6.03;5.30;;;;;;;24.21;49.14;98206.38;7013893;28;20636;-80
2022/08/17 05:52:18;;;;;;;6.70;5.77;;;;;;;24.54;48.13;98190.53;7031076;28;20203;-80
2022/08/17 05:55:46;;;;;;;6.40;5.60;;;;;;;24.51;48.44;98183.69;7025032;28;20590;-80
2022/08/17 05:59:19;;;;;;;7.03;5.27;;;;;;;25.26;44.91;98123.97;7002226;28;20211;-80
2022/08/17 06:02:53;;;;;;;6.23;5.53;;;;;;;24.90;47.18;98196.88;7026197;28;20246;-80
2022/08/17 06:06:31;;;;;;;6.07;5.53;;;;;;;24.80;47.79;98231.03;7030521;28;20205;-80
2022/08/17 06:09:59;;;;;;;6.43;5.83;;;;;;;25.58;45.23;98200.13;7029667;28;20184;-80
2022/08/17 06:13:31;;;;;;;6.97;6.27;;;;;;;26.06;44.46;98235.03;7019385;28;20320;-80
2022/08/17 06:16:56;;;;;;;7.80;6.07;;;;;;;26.79;42.82;98226.78;7003289;28;20251;-80
2022/08/17 06:20:18;;;;;;;6.57;5.97;;;;;;;26.48;43.44;98253.72;7002705;28;20227;-79
2022/08/17 06:23:42;;;;;;;6.80;5.53;;;;;;;26.05;44.67;98263.78;7004395;28;20233;-80
2022/08/17 06:27:09;;;;;;;6.73;5.73;;;;;;;25.91;44.67;98260.31;7005512;28;20215;-79
2022/08/17 06:30:38;;;;;;;7.17;5.60;;;;;;;25.76;45.01;98262.63;7004378;28;20193;-79
2022/08/17 06:34:02;;;;;;;9.97;5.60;;;;;;;26.26;44.15;98248.25;7023743;28;20225;-79
2022/08/17 06:37:34;;;;;;;6.90;6.00;;;;;;;26.16;44.48;98245.81;7033185;28;20662;-80
2022/08/17 06:41:11;;;;;;;6.93;5.63;;;;;;;26.63;43.70;98253.31;7038551;28;20701;-80
2022/08/17 06:44:36;;;;;;;9.03;5.73;;;;;;;27.00;42.35;98241.63;7040457;28;20244;-80
2022/08/17 06:48:05;;;;;;;7.63;5.60;;;;;;;26.59;43.33;98254.25;7051471;28;20194;-80
2022/08/17 06:51:30;;;;;;;8.30;5.70;;;;;;;27.43;42.07;98264.63;7015623;28;20203;-80
2022/08/17 06:54:57;;;;;;;7.77;5.20;;;;;;;27.82;41.21;98261.66;7010606;28;20234;-79
2022/08/17 06:58:21;;;;;;;6.07;5.40;;;;;;;27.62;41.67;98275.38;7009044;28;20236;-80
2022/08/17 07:01:44;;;;;;;7.33;5.93;;;;;;;27.84;40.47;98256.59;7010533;28;20230;-80
2022/08/17 07:05:07;;;;;;;5.63;4.80;;;;;;;28.72;39.02;98250.06;7011824;28;20229;-81
2022/08/17 07:08:38;;;;;;;5.87;5.37;;;;;;;28.08;40.37;98234.69;7023805;28;20208;-80
2022/08/17 07:12:03;;;;;;;5.23;4.70;;;;;;;28.11;40.67;98230.44;7029594;28;20217;-80
2022/08/17 07:15:32;;;;;;;5.53;5.03;;;;;;;28.44;39.85;98248.94;7011902;28;20226;-81
2022/08/17 07:18:56;;;;;;;6.33;4.97;;;;;;;29.56;37.93;98245.06;7011648;28;20207;-81
2022/08/17 07:22:22;;;;;;;5.50;5.00;;;;;;;30.16;36.19;98239.69;7012586;28;20215;-80
2022/08/17 07:25:44;;;;;;;5.73;4.60;;;;;;;30.58;35.04;98232.72;7013616;28;20220;-81
2022/08/17 07:29:05;;;;;;;6.83;4.63;;;;;;;29.96;36.49;98215.50;7027491;28;20288;-80
2022/08/17 07:32:31;;;;;;;5.10;4.63;;;;;;;30.51;35.72;98221.38;7037106;28;20209;-80
2022/08/17 07:35:53;;;;;;;5.93;4.30;;;;;;;30.53;34.88;98219.06;7042053;28;20199;-80
2022/08/17 07:39:26;;;;;;;6.10;4.30;;;;;;;30.86;34.20;98224.50;7041880;28;20234;-81
2022/08/17 07:43:05;;;;;;;4.43;3.77;;;;;;;31.03;32.70;98230.63;7055854;28;20211;-80
2022/08/17 07:50:24;;;;;;;5.93;3.70;;;;;;;31.17;32.36;98211.53;7030634;28;20201;-81
2022/08/17 07:53:46;;;;;;;4.63;4.20;;;;;;;31.61;32.29;98215.22;7035757;28;20377;-80
2022/08/17 07:57:30;;;;;;;5.73;4.00;;;;;;;31.32;32.34;98221.97;7034223;28;20300;-80
2022/08/17 08:01:08;;;;;;;4.30;4.00;;;;;;;31.75;32.33;98227.63;7033176;28;20576;-80
2022/08/17 08:04:35;;;;;;;6.37;4.30;;;;;;;32.26;31.34;98221.03;7031452;28;20317;-80
2022/08/17 08:08:00;;;;;;;4.20;3.90;;;;;;;32.00;31.05;98229.09;7015149;28;20206;-79
2022/08/17 08:11:32;;;;;;;5.27;4.53;;;;;;;32.38;31.03;98229.31;7009760;28;20241;-80
2022/08/17 08:14:57;;;;;;;4.17;3.87;;;;;;;31.86;31.95;98217.56;7028719;28;20263;-80
2022/08/17 08:18:22;;;;;;;4.57;4.10;;;;;;;31.74;32.50;98241.91;7041357;28;20196;-80
2022/08/17 08:21:47;;;;;;;8.37;4.23;;;;;;;31.59;32.24;98231.47;7042953;28;20225;-80
2022/08/17 08:25:24;;;;;;;4.60;4.20;;;;;;;30.97;33.06;98247.91;7036268;28;20233;-81
2022/08/17 08:28:53;;;;;;;4.90;4.10;;;;;;;31.16;33.19;98260.06;7034500;28;20188;-81
2022/08/17 08:32:20;;;;;;;5.43;4.00;;;;;;;30.54;33.82;98245.72;7034726;28;20203;-80
2022/08/17 08:35:46;;;;;;;6.10;4.67;;;;;;;30.63;33.66;98249.22;7035304;28;20246;-80
2022/08/17 08:39:13;;;;;;;4.70;4.30;;;;;;;30.92;33.49;98251.75;7033808;28;20192;-80
2022/08/17 08:42:38;;;;;;;4.87;3.93;;;;;;;30.63;34.08;98260.34;7033741;28;20195;-80
2022/08/17 08:46:03;;;;;;;4.73;4.03;;;;;;;31.01;33.07;98246.84;7033515;28;20195;-80
2022/08/17 08:49:40;;;;;;;4.83;3.60;;;;;;;31.42;32.44;98254.09;7033093;28;20692;-81
2022/08/17 08:53:11;;;;;;;6.97;4.20;;;;;;;30.77;33.11;98287.88;7033510;28;20233;-80
2022/08/17 08:56:37;;;;;;;4.77;3.93;;;;;;;30.75;33.21;98279.03;7033646;28;20617;-80
2022/08/17 09:00:11;;;;;;;5.17;3.83;;;;;;;31.14;33.38;98278.28;7032200;28;20216;-80
2022/08/17 09:03:49;;;;;;;6.90;4.23;;;;;;;31.00;33.07;98280.63;7033779;28;20231;-80
2022/08/17 09:07:22;;;;;;;7.37;4.00;;;;;;;30.87;32.98;98279.84;7033388;28;20276;-80
2022/08/17 09:10:54;;;;;;;4.63;4.17;;;;;;;30.54;33.24;98242.13;7035826;28;20241;-81
2022/08/17 09:14:18;;;;;;;5.20;4.23;;;;;;;30.93;33.41;98278.44;7035348;28;20743;-80
2022/08/17 09:17:45;;;;;;;6.53;4.33;;;;;;;31.05;32.88;98284.00;7036194;28;20208;-80
2022/08/17 09:21:13;;;;;;;5.47;4.33;;;;;;;31.14;33.00;98276.31;7036917;28;20670;-80
2022/08/17 09:24:40;;;;;;;4.80;4.30;;;;;;;30.74;33.33;98269.06;7035684;28;20239;-79
2022/08/17 09:28:04;;;;;;;6.77;4.60;;;;;;;30.81;33.68;98269.28;7036911;28;20324;-81
2022/08/17 09:31:34;;;;;;;5.13;4.20;;;;;;;31.02;33.19;98295.03;7037507;28;20214;-81
2022/08/17 09:35:00;;;;;;;5.53;4.30;;;;;;;30.72;33.22;98297.22;7036044;28;20223;-81
2022/08/17 09:38:26;;;;;;;4.90;4.33;;;;;;;31.00;33.14;98297.31;7036260;28;20214;-81
2022/08/17 09:41:52;;;;;;;8.17;4.50;;;;;;;30.83;33.00;98303.16;7036880;28;20365;-80
2022/08/17 09:45:24;;;;;;;7.50;4.90;;;;;;;30.48;33.89;98304.75;7038946;28;20704;-81
2022/08/17 09:48:54;;;;;;;7.77;4.60;;;;;;;30.76;33.31;98311.25;7035365;28;20663;-80
2022/08/17 09:52:19;;;;;;;8.83;4.47;;;;;;;31.00;33.40;98308.47;7013330;28;20230;-81
2022/08/17 09:55:58;;;;;;;8.17;4.93;;;;;;;30.89;33.17;98305.34;7035488;28;20261;-81
2022/08/17 09:59:30;;;;;;;5.03;4.50;;;;;;;31.20;32.89;98315.91;7034035;28;20219;-81
2022/08/17 10:03:04;;;;;;;5.03;4.53;;;;;;;31.01;33.48;98308.13;7033740;28;20221;-81
2022/08/17 10:06:30;;;;;;;6.27;4.87;;;;;;;30.91;33.68;98291.09;7032675;28;20285;-80
2022/08/17 10:09:58;;;;;;;5.50;4.93;;;;;;;31.12;33.17;98306.50;7032442;28;20205;-81
2022/08/17 10:13:31;;;;;;;5.17;4.73;;;;;;;31.08;32.58;98305.56;7036928;28;20271;-80
2022/08/17 10:16:58;;;;;;;4.40;3.83;;;;;;;31.45;33.16;98314.69;7037696;28;20220;-81
2022/08/17 10:20:23;;;;;;;5.40;4.63;;;;;;;31.32;33.33;98311.13;7037735;28;20229;-82
2022/08/17 10:27:36;;;;;;;5.03;4.60;;;;;;;31.25;32.70;98318.47;7036565;28;20267;-80
2022/08/17 10:31:02;;;;;;;5.57;4.70;;;;;;;31.35;32.42;98304.03;7037878;28;20221;-80
2022/08/17 10:34:50;;;;;;;6.73;4.83;;;;;;;31.43;32.42;98319.81;7038176;28;20777;-80
2022/08/17 10:38:44;;;;;;;9.30;5.00;;;;;;;31.27;32.26;98339.25;7038615;28;20239;-81
2022/08/17 10:42:24;;;;;;;5.67;4.50;;;;;;;30.98;33.43;98319.97;7039535;28;20216;-80
2022/08/17 10:45:51;;;;;;;6.07;4.63;;;;;;;31.16;32.95;98349.22;7036331;28;20305;-80
2022/08/17 10:49:25;;;;;;;10.30;4.93;;;;;;;31.19;33.10;98345.75;7036564;28;20339;-80
2022/08/17 10:52:51;;;;;;;6.67;5.13;;;;;;;31.09;33.13;98362.91;7036328;28;20227;-81
2022/08/17 10:56:41;;;;;;;7.97;4.67;;;;;;;31.50;32.80;98371.03;7015689;28;20252;-79
2022/08/17 11:00:07;;;;;;;8.23;5.27;;;;;;;31.48;32.44;98373.31;7005673;28;20232;-80
2022/08/17 11:03:32;;;;;;;5.23;4.40;;;;;;;31.52;32.19;98340.81;7008050;28;20362;-79
2022/08/17 11:07:03;;;;;;;8.97;4.47;;;;;;;31.47;32.90;98370.88;7009036;28;20335;-80
2022/08/17 11:10:41;;;;;;;6.13;4.60;;;;;;;31.55;32.87;98381.91;7034172;28;20199;-80
2022/08/17 11:14:22;;;;;;;6.53;4.70;;;;;;;31.87;32.67;98361.41;7035945;28;20296;-79
2022/08/17 11:18:07;;;;;;;8.23;4.43;;;;;;;30.93;32.58;98375.91;7035205;28;20195;-80
2022/08/17 11:21:51;;;;;;;6.47;4.50;;;;;;;31.06;33.11;98354.41;7035464;28;20854;-80
2022/08/17 11:25:16;;;;;;;6.13;4.70;;;;;;;31.50;33.12;98362.66;7033886;28;20300;-80
2022/08/17 11:28:47;;;;;;;13.57;8.30;;;;;;;31.69;32.55;98371.19;7034746;28;20696;-80
2022/08/17 11:32:12;;;;;;;16.43;9.33;;;;;;;32.05;31.88;98365.53;7034812;28;20196;-80
2022/08/17 11:35:38;;;;;;;14.03;9.10;;;;;;;31.91;31.65;98381.81;7007918;28;20236;-80
2022/08/17 11:39:05;;;;;;;6.50;4.80;;;;;;;31.22;31.21;98388.81;7010384;28;20198;-79
2022/08/17 11:42:36;;;;;;;5.73;4.57;;;;;;;30.58;31.75;98393.34;7036441;28;20237;-79
2022/08/17 11:46:12;;;;;;;6.20;4.03;;;;;;;30.87;32.45;98391.22;7035883;28;20200;-80
2022/08/17 11:53:56;;;;;;;3.27;2.97;;;;;;;30.41;32.61;98399.91;7036204;28;20214;-79
2022/08/17 11:58:00;;;;;;;3.60;3.17;;;;;;;30.37;33.19;98403.72;7005587;28;20220;-79
2022/08/17 12:01:54;;;;;;;4.17;3.77;;;;;;;30.46;33.55;98407.22;7019624;28;20228;-79
2022/08/17 12:05:30;;;;;;;6.80;6.07;;;;;;;30.37;33.51;98387.81;7007491;28;20254;-78
2022/08/17 12:08:53;;;;;;;4.17;3.77;;;;;;;30.97;32.77;98374.06;7006852;28;20203;-80
2022/08/17 12:12:17;;;;;;;4.67;4.27;;;;;;;30.95;33.07;98376.34;7006933;28;20220;-79
2022/08/17 12:15:43;;;;;;;4.67;4.27;;;;;;;31.19;33.21;98381.94;7006452;28;20229;-79
2022/08/17 12:19:18;;;;;;;19.63;13.30;;;;;;;31.55;32.10;98372.75;7006335;28;20190;-80
2022/08/17 12:22:46;;;;;;;3.93;3.60;;;;;;;32.38;31.41;98359.69;7007524;28;20721;-80
2022/08/17 12:26:13;;;;;;;4.20;3.50;;;;;;;31.61;32.13;98318.38;7005255;28;20204;-78
2022/08/17 12:29:36;;;;;;;4.67;3.93;;;;;;;32.22;30.93;98354.03;7004646;28;20240;-79
2022/08/17 12:32:58;;;;;;;3.40;3.10;;;;;;;31.57;30.33;98348.94;7013248;28;20588;-80
2022/08/17 12:36:23;;;;;;;3.70;3.33;;;;;;;31.54;31.66;98343.25;7031702;28;20231;-79
2022/08/17 12:39:52;;;;;;;3.67;3.10;;;;;;;31.63;30.66;98302.91;7032236;28;20206;-79
2022/08/17 12:43:19;;;;;;;4.03;3.20;;;;;;;31.55;30.75;98334.50;7035173;28;20221;-79
2022/08/17 12:46:51;;;;;;;2.93;2.73;;;;;;;31.36;31.54;98311.25;7011441;28;20247;-79
2022/08/17 12:50:14;;;;;;;3.30;3.00;;;;;;;31.68;30.78;98307.41;7004749;28;20651;-79
2022/08/17 12:53:37;;;;;;;4.43;3.70;;;;;;;31.73;30.67;98313.56;7005090;28;20229;-79
2022/08/17 12:57:01;;;;;;;6.50;4.60;;;;;;;32.98;29.38;98309.00;7005528;28;20319;-79
2022/08/17 13:00:28;;;;;;;3.80;3.10;;;;;;;32.39;28.43;98306.31;7009109;28;20219;-80
2022/08/17 13:03:52;;;;;;;3.40;3.13;;;;;;;32.98;27.87;98289.44;7007630;28;20693;-79
2022/08/17 13:07:26;;;;;;;3.03;2.83;;;;;;;33.34;27.88;98275.13;7011881;28;20215;-79
2022/08/17 13:10:56;;;;;;;3.90;3.30;;;;;;;32.88;27.00;98273.22;7035162;28;20201;-80
2022/08/17 13:14:18;;;;;;;5.30;4.90;;;;;;;33.56;26.14;98263.22;7034990;28;20231;-82
2022/08/17 13:17:39;;;;;;;4.10;3.10;;;;;;;33.82;25.31;98258.63;7036981;28;20208;-81
2022/08/17 13:21:01;;;;;;;3.50;3.20;;;;;;;33.98;24.11;98264.13;7035671;28;20232;-82
2022/08/17 13:24:25;;;;;;;4.00;3.10;;;;;;;33.77;24.48;98244.09;7033665;28;20711;-82
2022/08/17 13:27:50;;;;;;;3.57;3.10;;;;;;;33.44;24.59;98221.44;7017922;28;20193;-83
2022/08/17 13:31:24;;;;;;;4.07;3.13;;;;;;;34.39;23.03;98238.09;7034387;28;20242;-83
2022/08/17 13:34:47;;;;;;;3.50;3.20;;;;;;;34.76;23.45;98239.97;7028750;28;20278;-82
2022/08/17 13:38:13;;;;;;;3.60;3.30;;;;;;;33.77;24.87;98242.13;7035650;28;20193;-81
2022/08/17 13:41:36;;;;;;;3.60;3.30;;;;;;;34.38;23.95;98225.28;7033073;28;20220;-81
2022/08/17 13:45:00;;;;;;;4.00;3.60;;;;;;;33.24;25.29;98219.78;7007848;28;20225;-80
2022/08/17 13:48:25;;;;;;;4.53;3.47;;;;;;;34.00;24.53;98209.41;7025842;28;20205;-81
2022/08/17 13:51:48;;;;;;;3.50;3.20;;;;;;;34.58;23.54;98224.03;7061903;28;20223;-80
2022/08/17 13:55:18;;;;;;;3.40;3.20;;;;;;;34.78;23.40;98219.97;7061728;28;20701;-81
2022/08/17 13:58:51;;;;;;;3.37;3.17;;;;;;;34.92;23.25;98226.59;7038175;28;20201;-82
2022/08/17 14:02:16;;;;;;;3.40;3.10;;;;;;;34.76;23.55;98222.34;7005013;28;20233;-81
2022/08/17 14:05:38;;;;;;;3.80;3.43;;;;;;;35.27;23.06;98218.72;7020689;28;20233;-82
2022/08/17 14:09:03;;;;;;;3.60;3.30;;;;;;;33.77;24.25;98216.13;7031633;28;20288;-82
2022/08/17 14:12:27;;;;;;;4.03;3.17;;;;;;;33.68;24.27;98195.97;7009235;28;20216;-82
2022/08/17 14:15:49;;;;;;;3.37;3.07;;;;;;;34.91;22.97;98179.34;7030788;28;20266;-81
2022/08/17 14:19:14;;;;;;;3.70;3.40;;;;;;;33.64;24.37;98187.50;7037367;28;20278;-80
2022/08/17 14:22:37;;;;;;;12.97;11.00;;;;;;;34.20;23.98;98170.97;7029880;28;20228;-80
2022/08/17 14:26:01;;;;;;;3.83;3.33;;;;;;;34.53;23.88;98176.72;7018002;28;20242;-80
2022/08/17 14:29:24;;;;;;;5.73;5.00;;;;;;;34.84;23.64;98157.63;7033152;28;20204;-80
2022/08/17 14:32:47;;;;;;;4.23;3.47;;;;;;;34.82;23.37;98160.00;7024886;28;20216;-80
2022/08/17 14:36:10;;;;;;;3.60;3.30;;;;;;;35.16;22.79;98156.06;7031151;28;20197;-80
2022/08/17 14:39:32;;;;;;;4.27;3.20;;;;;;;34.97;23.50;98161.00;7029289;28;20613;-79
2022/08/17 14:42:56;;;;;;;5.07;3.20;;;;;;;34.62;23.84;98152.06;7006442;28;20229;-80
2022/08/17 14:46:18;;;;;;;3.47;3.17;;;;;;;34.26;23.44;98131.09;7004615;28;20213;-80
2022/08/17 14:49:39;;;;;;;5.50;3.37;;;;;;;35.13;23.38;98122.41;7004527;28;20256;-82
2022/08/17 14:53:03;;;;;;;3.90;3.33;;;;;;;35.61;22.23;98160.63;7010283;28;20221;-80
2022/08/17 14:56:25;;;;;;;5.10;3.40;;;;;;;35.94;22.03;98158.59;7032483;28;20216;-80
2022/08/17 14:59:47;;;;;;;3.87;3.27;;;;;;;34.93;22.82;98152.56;7022558;28;20213;-80
2022/08/17 15:03:10;;;;;;;3.67;3.37;;;;;;;35.17;22.71;98151.25;7034877;28;20229;-79
2022/08/17 15:06:31;;;;;;;3.33;3.03;;;;;;;34.99;23.12;98162.25;7038882;28;20212;-79
2022/08/17 15:09:55;;;;;;;3.30;3.00;;;;;;;34.96;22.81;98151.00;7036417;28;20205;-80
2022/08/17 15:13:19;;;;;;;3.10;2.90;;;;;;;35.38;23.14;98166.38;7038902;28;20281;-81
2022/08/17 15:16:40;;;;;;;4.13;3.07;;;;;;;35.21;22.51;98166.13;7037239;28;20212;-80
2022/08/17 15:20:02;;;;;;;5.10;3.10;;;;;;;35.20;23.18;98159.69;7030920;28;20609;-82
2022/08/17 15:23:25;;;;;;;3.90;3.20;;;;;;;34.64;23.42;98163.69;7038086;28;20232;-80
2022/08/17 15:26:48;;;;;;;3.53;3.23;;;;;;;35.09;22.97;98143.97;7023058;28;20229;-80
2022/08/17 15:30:11;;;;;;;4.40;3.30;;;;;;;35.15;23.14;98148.84;7008301;28;20201;-80
2022/08/17 15:33:33;;;;;;;6.13;4.60;;;;;;;34.31;23.46;98108.41;7018085;28;20225;-80
2022/08/17 15:36:54;;;;;;;4.40;4.00;;;;;;;35.01;23.37;98147.88;7027113;28;20245;-82
2022/08/17 15:40:16;;;;;;;11.10;6.00;;;;;;;35.02;23.47;98135.47;7019870;28;20201;-79
2022/08/17 15:43:39;;;;;;;4.00;3.30;;;;;;;34.88;23.40;98141.69;7039765;28;20686;-81
2022/08/17 15:47:00;;;;;;;4.23;3.50;;;;;;;35.13;23.23;98148.41;7018336;28;20190;-82
2022/08/17 15:50:22;;;;;;;3.93;3.57;;;;;;;35.26;23.03;98130.19;7015892;28;20205;-82
2022/08/17 15:53:45;;;;;;;3.27;3.03;;;;;;;35.47;22.64;98143.63;7017469;28;20228;-82
2022/08/17 15:57:07;;;;;;;4.10;3.17;;;;;;;35.41;22.91;98142.38;7016508;28;20570;-81
2022/08/17 16:00:30;;;;;;;3.57;3.07;;;;;;;34.87;23.46;98108.44;7014264;28;20497;-80
2022/08/17 16:03:54;;;;;;;3.50;3.20;;;;;;;34.66;23.45;98142.53;7016880;28;20229;-79
2022/08/17 16:07:16;;;;;;;4.43;3.23;;;;;;;34.92;23.50;98136.94;7017994;28;20724;-80
2022/08/17 16:10:38;;;;;;;5.50;3.50;;;;;;;34.75;24.28;98134.69;7036081;28;20289;-79
2022/08/17 16:13:59;;;;;;;3.50;3.20;;;;;;;34.68;23.99;98114.97;7053291;28;20280;-86
2022/08/17 16:17:22;;;;;;;3.80;3.00;;;;;;;34.23;24.02;98139.41;7037472;28;20215;-80
2022/08/17 16:20:44;;;;;;;4.40;3.30;;;;;;;34.28;24.52;98116.75;7036119;28;20685;-81
2022/08/17 16:24:07;;;;;;;3.70;2.97;;;;;;;34.54;24.18;98127.97;7014114;28;20243;-78
2022/08/17 16:27:29;;;;;;;3.63;3.03;;;;;;;34.19;24.46;98132.97;7010065;28;20314;-82
2022/08/17 16:30:50;;;;;;;5.77;3.80;;;;;;;34.15;24.84;98127.31;7013537;28;20201;-81
2022/08/17 16:34:13;;;;;;;4.17;3.03;;;;;;;34.23;24.67;98106.66;7011648;28;20220;-81
2022/08/17 16:37:36;;;;;;;4.23;3.37;;;;;;;34.11;24.61;98106.84;7011364;28;20193;-82